Flight Track Log - Related Links

Times and Time Zones

All times are in EDT time to prevent confusion due to time zone crossing. See the DAL6201 flight status page for this flight to view local times or setup timezone preferences in your user account.


Time Position Orientation Groundspeed Altitude Reporting Facility
EDT Latitude Longitude Course Direction KTS MPH feet Rate Location/Type
Mon 07:11:25 PM 40.4889 -80.2175 88° East 167 192 1,700  Level FAA TRACON SMA TRACON (SMA)
Mon 07:11:44 PM 40.4894 -80.1933 88° East 173 199 2,900 3,150 Climbing FAA TRACON SMA TRACON (SMA)
Mon 07:12:05 PM 40.4917 -80.1750 81° East 176 203 3,800 2,700 Climbing FAA TRACON SMA TRACON (SMA)
Mon 07:12:24 PM 40.4925 -80.1517 87° East 186 214 4,700 1,800 Climbing FAA TRACON SMA TRACON (SMA)
Mon 07:12:45 PM 40.4947 -80.1200 85° East 234 269 5,000 439 Climbing FAA TRACON SMA TRACON (SMA)
Mon 07:13:05 PM 40.4964 -80.0908 86° East 265 305 5,000 300 Level FAA TRACON SMA TRACON (SMA)
Mon 07:13:25 PM 40.4986 -80.0606 84° East 274 315 5,200 2,100 Climbing FAA TRACON SMA TRACON (SMA)
Mon 07:13:45 PM 40.5042 -80.0211 79° East 284 327 6,400 3,077 Climbing FAA TRACON SMA TRACON (SMA)
Mon 07:14:04 PM 40.5086 -79.9897 79° East 285 328 7,200 2,550 Climbing FAA TRACON SMA TRACON (SMA)
Mon 07:14:25 PM 40.5131 -79.9569 80° East 290 334 8,100 2,850 Climbing FAA TRACON SMA TRACON (SMA)
Mon 07:14:44 PM 40.5186 -79.9156 80° East 297 342 9,100 2,400 Climbing FAA TRACON SMA TRACON (SMA)
Mon 07:15:05 PM 40.5236 -79.8842 78° East 303 349 9,700 2,195 Climbing FAA TRACON SMA TRACON (SMA)
Mon 07:15:25 PM 40.5275 -79.8458 82° East 312 359 10,600 2,154 Climbing FAA TRACON SMA TRACON (SMA)
Mon 07:15:44 PM 40.5339 -79.7992 80° East 333 383 11,100 1,350 Climbing FAA TRACON SMA TRACON (SMA)
Mon 07:16:05 PM 40.5419 -79.7608 75° East 354 407 11,500 1,650 Climbing FAA TRACON SMA TRACON (SMA)
Mon 07:16:24 PM 40.5450 -79.7183 85° East 369 425 12,200 2,400 Climbing FAA TRACON SMA TRACON (SMA)
Mon 07:16:45 PM 40.5525 -79.6667 79° East 375 432 13,100 2,341 Climbing FAA TRACON SMA TRACON (SMA)
Mon 07:17:05 PM 40.5581 -79.6253 80° East 383 441 13,800 2,308 Climbing FAA TRACON SMA TRACON (SMA)
Mon 07:17:24 PM 40.5642 -79.5831 79° East 379 436 14,600 2,400 Climbing FAA TRACON SMA TRACON (SMA)
Mon 07:17:45 PM 40.5764 -79.5344 72° East 381 438 15,400 2,250 Climbing FAA TRACON SMA TRACON (SMA)
Mon 07:18:04 PM 40.5769 -79.4875 89° East 383 441 16,100 1,950 Climbing FAA TRACON SMA TRACON (SMA)
Mon 07:18:25 PM 40.5828 -79.4442 80° East 386 444 16,700 1,902 Climbing FAA TRACON SMA TRACON (SMA)
Mon 07:18:45 PM 40.5931 -79.3939 75° East 391 450 17,400 1,737 Climbing FAA TRACON SMA TRACON (SMA)
Mon 07:19:03 PM 40.6006 -79.3525 77° East 380 437 17,800 1,538 Climbing Cleveland Center
Mon 07:20:03 PM 40.6217 -79.2017 80° East 391 450 19,400 1,600 Climbing Cleveland Center
Mon 07:21:03 PM 40.6425 -79.0453 80° East 414 476 21,000 1,600 Climbing Cleveland Center
Mon 07:22:03 PM 40.6739 -78.8939 75° East 428 493 22,600 1,550 Climbing Cleveland Center
Mon 07:23:03 PM 40.7575 -78.7767 47° Northeast 411 473 24,100 1,400 Climbing Cleveland Center
Mon 07:24:03 PM 40.8433 -78.6619 45° Northeast 423 487 25,400 1,250 Climbing Cleveland Center
Mon 07:25:03 PM 40.9328 -78.5383 46° Northeast 443 510 26,600 800 Climbing Cleveland Center
Mon 07:26:03 PM 41.0244 -78.4142 46° Northeast 454 522 27,000 171 Climbing Cleveland Center
Mon 07:27:23 PM 41.1333 -78.2564 47° Northeast 486 559 27,000  Level New York Center
Mon 07:28:23 PM 41.2006 -78.1122 58° Northeast 481 554 27,000  Level New York Center
Mon 07:29:24 PM 41.1864 -77.9342 96° East 449 517 27,000  Level New York Center
Mon 07:30:25 PM 41.1658 -77.7556 99° East 455 524 27,000  Level New York Center
Mon 07:31:23 PM 41.1428 -77.5794 100° East 471 542 27,000  Level New York Center
Mon 07:32:23 PM 41.1214 -77.4064 99° East 476 548 27,000  Level New York Center
Mon 07:33:23 PM 41.0961 -77.2194 100° East 471 542 27,000 -353 Level New York Center
Mon 07:34:22 PM 41.0739 -77.0550 100° East 466 536 26,300 -1,261 Descending New York Center
Mon 07:35:22 PM 41.0531 -76.8961 100° East 452 520 24,500 -1,785 Descending New York Center
Mon 07:36:23 PM 41.0314 -76.7456 101° East 433 498 22,700 -1,672 Descending New York Center
Mon 07:37:24 PM 41.0053 -76.6003 103° East 420 483 21,100 -1,462 Descending New York Center
Mon 07:38:22 PM 40.9744 -76.4631 107° East 403 464 19,800 -1,311 Descending New York Center
Mon 07:39:23 PM 40.9467 -76.3478 108° East 379 436 18,500 -893 Descending New York Center
Mon 07:40:23 PM 40.9150 -76.2217 108° East 368 423 18,000 -756 Descending New York Center
Mon 07:41:22 PM 40.8819 -76.0792 107° East 367 422 17,000 -1,311 Descending New York Center
Mon 07:42:22 PM 40.8536 -75.9644 108° East 372 428 15,400 -1,623 Descending New York Center
Mon 07:43:24 PM 40.8200 -75.8303 108° East 359 413 13,700 -1,180 Descending New York Center
Mon 07:44:24 PM 40.7917 -75.7131 108° East 348 400 13,000 -356 Descending New York Center
Mon 07:45:22 PM 40.7647 -75.6069 109° East 337 388 13,000  Level New York Center
Mon 07:46:23 PM 40.7342 -75.4842 108° East 343 395 13,000  Level New York Center
Mon 07:47:22 PM 40.7058 -75.3564 106° East 355 409 13,000 -454 Level New York Center
Mon 07:48:22 PM 40.6797 -75.2206 104° East 355 409 12,100 -992 Descending New York Center
Mon 07:49:23 PM 40.6439 -75.1225 116° Southeast 338 389 11,000 -1,091 Descending New York Center
Mon 07:50:23 PM 40.5767 -75.0197 131° Southeast 333 383 9,900 -550 Descending New York Center
Mon 07:51:23 PM 40.5411 -74.9111 113° Southeast 323 372 9,900 74 Level New York Center
Mon 07:51:44 PM 40.5333 -74.8667 103° East 325 374 10,000 74 Climbing New York TRACON
Mon 07:52:44 PM 40.5000 -74.7500 111° Southeast 327 376 10,000  Level New York TRACON
Mon 07:53:44 PM 40.4667 -74.6500 114° Southeast 328 377 10,000  Level New York TRACON
Mon 07:54:44 PM 40.4333 -74.5333 111° Southeast 329 379 10,000  Level New York TRACON
Mon 07:55:44 PM 40.4667 -74.4167 69° East 336 387 10,000 -100 Level New York TRACON
Mon 07:56:44 PM 40.4833 -74.3167 78° East 301 346 9,800 -750 Descending New York TRACON
Mon 07:57:44 PM 40.5167 -74.2167 66° East 288 331 8,500 -1,400 Descending New York TRACON
Mon 07:58:44 PM 40.5667 -74.1167 57° Northeast 292 336 7,000 -1,500 Descending New York TRACON
Mon 07:59:44 PM 40.6333 -74.0667 30° Northeast 290 334 5,500 -1,381 Descending New York TRACON
Mon 08:00:50 PM 40.7000 -74.0333 21° North 272 313 4,100 -1,190 Descending New York TRACON
Mon 08:01:50 PM 40.7833 -74.0000 17° North 263 303 3,000 -550 Descending New York TRACON
Mon 08:02:50 PM 40.8333 -73.9500 37° Northeast 261 300 3,000  Level New York TRACON
Mon 08:03:50 PM 40.8833 -73.9000 37° Northeast 232 267 3,000 -450 Level New York TRACON
Mon 08:04:50 PM 40.9000 -73.8333 72° East 185 213 2,100 -550 Descending New York TRACON
Mon 08:05:50 PM 40.8667 -73.8000 143° Southeast 146 168 1,900 -400 Descending New York TRACON
Mon 08:06:50 PM 40.8333 -73.8333 217° Southwest 132 152 1,300 -650 Descending New York TRACON
Mon 08:07:50 PM 40.8000 -73.8500 201° Southwest 133 153 600 -700 Descending New York TRACON
Mon 08:09:00 PM 40.7667 -73.8667 191° South  Level FlightAware Approximate

Login

Don't have an account? Register now (free) for customized features, flight alerts, and more!